sensor_id;sensor_type;location;lat;lon;timestamp;P1;durP1;ratioP1;P2;durP2;ratioP2
29878;SDS011;16752;53.364;-1.488;2023-07-02T00:00:21;21.90;;;8.10;;
29878;SDS011;16752;53.364;-1.488;2023-07-02T00:03:05;22.58;;;6.82;;
29878;SDS011;16752;53.364;-1.488;2023-07-02T00:05:49;32.05;;;7.65;;
29878;SDS011;16752;53.364;-1.488;2023-07-02T00:08:34;25.27;;;7.15;;
29878;SDS011;16752;53.364;-1.488;2023-07-02T00:11:18;24.52;;;7.47;;
29878;SDS011;16752;53.364;-1.488;2023-07-02T00:14:02;23.23;;;7.45;;
29878;SDS011;16752;53.364;-1.488;2023-07-02T00:16:46;18.13;;;6.60;;
29878;SDS011;16752;53.364;-1.488;2023-07-02T00:19:30;19.60;;;6.28;;
29878;SDS011;16752;53.364;-1.488;2023-07-02T00:22:14;16.38;;;6.20;;
29878;SDS011;16752;53.364;-1.488;2023-07-02T00:24:59;26.27;;;7.65;;
29878;SDS011;16752;53.364;-1.488;2023-07-02T00:27:44;21.63;;;7.82;;
29878;SDS011;16752;53.364;-1.488;2023-07-02T00:30:28;15.88;;;6.10;;
29878;SDS011;16752;53.364;-1.488;2023-07-02T00:33:11;25.00;;;7.70;;
29878;SDS011;16752;53.364;-1.488;2023-07-02T00:35:55;21.92;;;7.28;;
29878;SDS011;16752;53.364;-1.488;2023-07-02T00:38:46;24.02;;;7.10;;
29878;SDS011;16752;53.364;-1.488;2023-07-02T00:41:31;19.83;;;6.70;;
29878;SDS011;16752;53.364;-1.488;2023-07-02T00:44:16;22.45;;;7.38;;
29878;SDS011;16752;53.364;-1.488;2023-07-02T00:47:00;15.65;;;6.60;;
29878;SDS011;16752;53.364;-1.488;2023-07-02T00:49:45;13.55;;;6.25;;
29878;SDS011;16752;53.364;-1.488;2023-07-02T00:52:28;19.08;;;5.85;;
29878;SDS011;16752;53.364;-1.488;2023-07-02T00:55:13;17.50;;;5.85;;
29878;SDS011;16752;53.364;-1.488;2023-07-02T00:57:56;14.30;;;5.80;;
29878;SDS011;16752;53.364;-1.488;2023-07-02T01:00:41;15.20;;;5.43;;
29878;SDS011;16752;53.364;-1.488;2023-07-02T01:03:25;22.42;;;5.90;;
29878;SDS011;16752;53.364;-1.488;2023-07-02T01:06:09;13.63;;;5.60;;
29878;SDS011;16752;53.364;-1.488;2023-07-02T01:08:57;15.85;;;5.30;;
29878;SDS011;16752;53.364;-1.488;2023-07-02T01:11:44;16.55;;;5.50;;
29878;SDS011;16752;53.364;-1.488;2023-07-02T01:14:38;17.40;;;5.43;;
29878;SDS011;16752;53.364;-1.488;2023-07-02T01:17:23;17.02;;;5.35;;
29878;SDS011;16752;53.364;-1.488;2023-07-02T01:20:09;12.60;;;5.03;;
29878;SDS011;16752;53.364;-1.488;2023-07-02T01:22:54;15.18;;;4.85;;
29878;SDS011;16752;53.364;-1.488;2023-07-02T01:25:38;15.57;;;5.75;;
29878;SDS011;16752;53.364;-1.488;2023-07-02T01:28:23;20.95;;;6.55;;
29878;SDS011;16752;53.364;-1.488;2023-07-02T01:31:07;12.35;;;4.68;;
29878;SDS011;16752;53.364;-1.488;2023-07-02T01:33:51;15.18;;;5.40;;
29878;SDS011;16752;53.364;-1.488;2023-07-02T01:36:36;16.40;;;5.63;;
29878;SDS011;16752;53.364;-1.488;2023-07-02T01:39:21;15.88;;;5.10;;
29878;SDS011;16752;53.364;-1.488;2023-07-02T01:42:12;15.70;;;6.38;;
29878;SDS011;16752;53.364;-1.488;2023-07-02T01:45:01;17.23;;;5.30;;
29878;SDS011;16752;53.364;-1.488;2023-07-02T01:47:45;20.60;;;5.45;;
29878;SDS011;16752;53.364;-1.488;2023-07-02T01:50:29;15.00;;;5.53;;
29878;SDS011;16752;53.364;-1.488;2023-07-02T01:53:13;15.90;;;5.60;;
29878;SDS011;16752;53.364;-1.488;2023-07-02T01:55:56;13.90;;;5.43;;
29878;SDS011;16752;53.364;-1.488;2023-07-02T01:58:41;22.17;;;6.03;;
29878;SDS011;16752;53.364;-1.488;2023-07-02T02:01:25;16.17;;;5.65;;
29878;SDS011;16752;53.364;-1.488;2023-07-02T02:04:09;17.10;;;6.13;;
29878;SDS011;16752;53.364;-1.488;2023-07-02T02:06:54;22.13;;;6.80;;
29878;SDS011;16752;53.364;-1.488;2023-07-02T02:09:39;15.02;;;5.28;;
29878;SDS011;16752;53.364;-1.488;2023-07-02T02:12:23;16.67;;;5.22;;
29878;SDS011;16752;53.364;-1.488;2023-07-02T02:15:07;23.63;;;6.38;;
29878;SDS011;16752;53.364;-1.488;2023-07-02T02:17:51;17.00;;;5.90;;
29878;SDS011;16752;53.364;-1.488;2023-07-02T02:20:35;12.82;;;6.05;;
29878;SDS011;16752;53.364;-1.488;2023-07-02T02:23:19;21.13;;;6.18;;
29878;SDS011;16752;53.364;-1.488;2023-07-02T02:26:03;16.90;;;5.50;;
29878;SDS011;16752;53.364;-1.488;2023-07-02T02:28:48;18.40;;;6.07;;
29878;SDS011;16752;53.364;-1.488;2023-07-02T02:31:32;15.10;;;5.47;;
29878;SDS011;16752;53.364;-1.488;2023-07-02T02:34:16;16.92;;;5.25;;
29878;SDS011;16752;53.364;-1.488;2023-07-02T02:37:00;15.85;;;5.80;;
29878;SDS011;16752;53.364;-1.488;2023-07-02T02:39:44;25.48;;;6.03;;
29878;SDS011;16752;53.364;-1.488;2023-07-02T02:42:28;20.52;;;6.35;;
29878;SDS011;16752;53.364;-1.488;2023-07-02T02:45:12;16.25;;;6.03;;
29878;SDS011;16752;53.364;-1.488;2023-07-02T02:47:56;21.88;;;5.95;;
29878;SDS011;16752;53.364;-1.488;2023-07-02T02:50:40;11.48;;;4.95;;
29878;SDS011;16752;53.364;-1.488;2023-07-02T02:53:26;15.50;;;5.72;;
29878;SDS011;16752;53.364;-1.488;2023-07-02T02:56:10;13.82;;;5.43;;
29878;SDS011;16752;53.364;-1.488;2023-07-02T02:58:54;17.23;;;5.40;;
29878;SDS011;16752;53.364;-1.488;2023-07-02T03:01:38;13.50;;;4.93;;
29878;SDS011;16752;53.364;-1.488;2023-07-02T03:04:23;19.17;;;5.43;;
29878;SDS011;16752;53.364;-1.488;2023-07-02T03:07:08;18.60;;;5.15;;
29878;SDS011;16752;53.364;-1.488;2023-07-02T03:09:52;13.90;;;5.68;;
29878;SDS011;16752;53.364;-1.488;2023-07-02T03:12:36;16.55;;;5.57;;
29878;SDS011;16752;53.364;-1.488;2023-07-02T03:15:20;16.90;;;6.00;;
29878;SDS011;16752;53.364;-1.488;2023-07-02T03:18:05;16.05;;;6.07;;
29878;SDS011;16752;53.364;-1.488;2023-07-02T03:20:49;18.20;;;5.43;;
29878;SDS011;16752;53.364;-1.488;2023-07-02T03:23:34;16.35;;;5.75;;
29878;SDS011;16752;53.364;-1.488;2023-07-02T03:26:18;17.00;;;5.55;;
29878;SDS011;16752;53.364;-1.488;2023-07-02T03:29:03;15.35;;;5.72;;
29878;SDS011;16752;53.364;-1.488;2023-07-02T03:31:47;15.95;;;5.97;;
29878;SDS011;16752;53.364;-1.488;2023-07-02T03:34:31;16.75;;;5.78;;
29878;SDS011;16752;53.364;-1.488;2023-07-02T03:37:16;17.35;;;5.68;;
29878;SDS011;16752;53.364;-1.488;2023-07-02T03:40:00;21.15;;;5.68;;
29878;SDS011;16752;53.364;-1.488;2023-07-02T03:42:44;20.73;;;5.68;;
29878;SDS011;16752;53.364;-1.488;2023-07-02T03:45:28;16.58;;;5.63;;
29878;SDS011;16752;53.364;-1.488;2023-07-02T03:48:12;21.00;;;5.43;;
29878;SDS011;16752;53.364;-1.488;2023-07-02T03:50:56;19.05;;;6.22;;
29878;SDS011;16752;53.364;-1.488;2023-07-02T03:53:41;13.55;;;6.07;;
29878;SDS011;16752;53.364;-1.488;2023-07-02T03:56:25;20.02;;;6.75;;
29878;SDS011;16752;53.364;-1.488;2023-07-02T03:59:10;17.40;;;6.53;;
29878;SDS011;16752;53.364;-1.488;2023-07-02T04:01:54;15.63;;;5.80;;
29878;SDS011;16752;53.364;-1.488;2023-07-02T04:04:38;19.08;;;6.60;;
29878;SDS011;16752;53.364;-1.488;2023-07-02T04:07:22;18.38;;;6.95;;
29878;SDS011;16752;53.364;-1.488;2023-07-02T04:10:09;14.52;;;6.35;;
29878;SDS011;16752;53.364;-1.488;2023-07-02T04:12:53;18.55;;;6.07;;
29878;SDS011;16752;53.364;-1.488;2023-07-02T04:15:37;15.43;;;5.68;;
29878;SDS011;16752;53.364;-1.488;2023-07-02T04:18:21;15.35;;;6.05;;
29878;SDS011;16752;53.364;-1.488;2023-07-02T04:21:05;17.23;;;5.15;;
29878;SDS011;16752;53.364;-1.488;2023-07-02T04:23:49;23.77;;;6.03;;
29878;SDS011;16752;53.364;-1.488;2023-07-02T04:26:33;22.83;;;6.25;;
29878;SDS011;16752;53.364;-1.488;2023-07-02T04:29:16;18.95;;;6.43;;
29878;SDS011;16752;53.364;-1.488;2023-07-02T04:32:00;18.27;;;6.22;;
29878;SDS011;16752;53.364;-1.488;2023-07-02T04:34:44;17.98;;;5.20;;
29878;SDS011;16752;53.364;-1.488;2023-07-02T04:37:28;13.38;;;5.10;;
29878;SDS011;16752;53.364;-1.488;2023-07-02T04:40:12;15.57;;;6.32;;
29878;SDS011;16752;53.364;-1.488;2023-07-02T04:42:57;16.83;;;5.80;;
29878;SDS011;16752;53.364;-1.488;2023-07-02T04:45:45;19.88;;;5.90;;
29878;SDS011;16752;53.364;-1.488;2023-07-02T04:48:31;16.52;;;5.57;;
29878;SDS011;16752;53.364;-1.488;2023-07-02T04:51:15;11.77;;;4.97;;
29878;SDS011;16752;53.364;-1.488;2023-07-02T04:53:59;17.38;;;5.32;;
29878;SDS011;16752;53.364;-1.488;2023-07-02T04:56:43;14.15;;;5.40;;
29878;SDS011;16752;53.364;-1.488;2023-07-02T04:59:27;12.82;;;5.10;;
29878;SDS011;16752;53.364;-1.488;2023-07-02T05:02:11;23.63;;;5.95;;
29878;SDS011;16752;53.364;-1.488;2023-07-02T05:04:55;19.27;;;6.07;;
29878;SDS011;16752;53.364;-1.488;2023-07-02T05:07:40;12.77;;;4.32;;
29878;SDS011;16752;53.364;-1.488;2023-07-02T05:10:27;14.55;;;5.55;;
29878;SDS011;16752;53.364;-1.488;2023-07-02T05:13:11;11.07;;;4.65;;
29878;SDS011;16752;53.364;-1.488;2023-07-02T05:15:55;16.08;;;5.72;;
29878;SDS011;16752;53.364;-1.488;2023-07-02T05:18:39;13.18;;;4.57;;
29878;SDS011;16752;53.364;-1.488;2023-07-02T05:21:23;16.83;;;4.82;;
29878;SDS011;16752;53.364;-1.488;2023-07-02T05:24:07;18.08;;;5.40;;
29878;SDS011;16752;53.364;-1.488;2023-07-02T05:26:52;17.70;;;5.63;;
29878;SDS011;16752;53.364;-1.488;2023-07-02T05:29:36;14.18;;;5.13;;
29878;SDS011;16752;53.364;-1.488;2023-07-02T05:32:20;18.65;;;4.75;;
29878;SDS011;16752;53.364;-1.488;2023-07-02T05:35:04;16.63;;;5.22;;
29878;SDS011;16752;53.364;-1.488;2023-07-02T05:37:49;14.65;;;4.90;;
29878;SDS011;16752;53.364;-1.488;2023-07-02T05:40:33;9.43;;;4.63;;
29878;SDS011;16752;53.364;-1.488;2023-07-02T05:43:17;20.45;;;4.80;;
29878;SDS011;16752;53.364;-1.488;2023-07-02T05:46:01;15.23;;;5.05;;
29878;SDS011;16752;53.364;-1.488;2023-07-02T05:48:46;10.98;;;4.07;;
29878;SDS011;16752;53.364;-1.488;2023-07-02T05:51:31;15.35;;;4.93;;
29878;SDS011;16752;53.364;-1.488;2023-07-02T05:54:15;13.52;;;4.93;;
29878;SDS011;16752;53.364;-1.488;2023-07-02T05:56:59;15.40;;;4.43;;
29878;SDS011;16752;53.364;-1.488;2023-07-02T05:59:43;16.27;;;5.70;;
29878;SDS011;16752;53.364;-1.488;2023-07-02T06:02:27;14.07;;;5.45;;
29878;SDS011;16752;53.364;-1.488;2023-07-02T06:05:11;13.13;;;5.38;;
29878;SDS011;16752;53.364;-1.488;2023-07-02T06:07:55;16.80;;;5.95;;
29878;SDS011;16752;53.364;-1.488;2023-07-02T06:10:39;14.00;;;6.85;;
29878;SDS011;16752;53.364;-1.488;2023-07-02T06:13:23;17.77;;;6.30;;
29878;SDS011;16752;53.364;-1.488;2023-07-02T06:16:07;19.20;;;6.53;;
29878;SDS011;16752;53.364;-1.488;2023-07-02T06:18:51;17.27;;;7.38;;
29878;SDS011;16752;53.364;-1.488;2023-07-02T06:21:36;20.08;;;7.43;;
29878;SDS011;16752;53.364;-1.488;2023-07-02T06:24:20;16.73;;;7.70;;
29878;SDS011;16752;53.364;-1.488;2023-07-02T06:27:04;14.38;;;7.28;;
29878;SDS011;16752;53.364;-1.488;2023-07-02T06:29:48;20.27;;;7.45;;
29878;SDS011;16752;53.364;-1.488;2023-07-02T06:32:32;19.00;;;8.13;;
29878;SDS011;16752;53.364;-1.488;2023-07-02T06:35:16;15.52;;;7.28;;
29878;SDS011;16752;53.364;-1.488;2023-07-02T06:38:00;14.75;;;7.03;;
29878;SDS011;16752;53.364;-1.488;2023-07-02T06:40:44;19.92;;;7.88;;
29878;SDS011;16752;53.364;-1.488;2023-07-02T06:43:28;17.17;;;7.32;;
29878;SDS011;16752;53.364;-1.488;2023-07-02T06:46:12;19.40;;;7.63;;
29878;SDS011;16752;53.364;-1.488;2023-07-02T06:48:56;21.40;;;7.18;;
29878;SDS011;16752;53.364;-1.488;2023-07-02T06:51:40;15.27;;;8.02;;
29878;SDS011;16752;53.364;-1.488;2023-07-02T06:54:24;17.77;;;8.82;;
29878;SDS011;16752;53.364;-1.488;2023-07-02T06:57:09;17.58;;;7.78;;
29878;SDS011;16752;53.364;-1.488;2023-07-02T06:59:59;22.35;;;7.43;;
29878;SDS011;16752;53.364;-1.488;2023-07-02T07:02:43;20.50;;;6.57;;
29878;SDS011;16752;53.364;-1.488;2023-07-02T07:05:27;15.80;;;6.95;;
29878;SDS011;16752;53.364;-1.488;2023-07-02T07:08:13;20.60;;;7.47;;
29878;SDS011;16752;53.364;-1.488;2023-07-02T07:10:57;21.38;;;6.72;;
29878;SDS011;16752;53.364;-1.488;2023-07-02T07:13:40;13.02;;;6.47;;
29878;SDS011;16752;53.364;-1.488;2023-07-02T07:16:26;18.83;;;6.53;;
29878;SDS011;16752;53.364;-1.488;2023-07-02T07:19:10;21.00;;;5.38;;
29878;SDS011;16752;53.364;-1.488;2023-07-02T07:21:54;22.90;;;7.95;;
29878;SDS011;16752;53.364;-1.488;2023-07-02T07:24:38;21.13;;;7.15;;
29878;SDS011;16752;53.364;-1.488;2023-07-02T07:27:22;20.85;;;7.97;;
29878;SDS011;16752;53.364;-1.488;2023-07-02T07:30:06;21.73;;;7.20;;
29878;SDS011;16752;53.364;-1.488;2023-07-02T07:32:50;25.35;;;7.72;;
29878;SDS011;16752;53.364;-1.488;2023-07-02T07:35:35;17.88;;;7.07;;
29878;SDS011;16752;53.364;-1.488;2023-07-02T07:38:20;19.73;;;8.00;;
29878;SDS011;16752;53.364;-1.488;2023-07-02T07:41:06;23.40;;;7.57;;
29878;SDS011;16752;53.364;-1.488;2023-07-02T07:43:50;22.35;;;8.68;;
29878;SDS011;16752;53.364;-1.488;2023-07-02T07:46:34;18.92;;;7.25;;
29878;SDS011;16752;53.364;-1.488;2023-07-02T07:49:18;29.92;;;7.72;;
29878;SDS011;16752;53.364;-1.488;2023-07-02T07:52:03;14.63;;;6.63;;
29878;SDS011;16752;53.364;-1.488;2023-07-02T07:54:50;15.02;;;6.63;;
29878;SDS011;16752;53.364;-1.488;2023-07-02T07:57:34;23.58;;;7.25;;
29878;SDS011;16752;53.364;-1.488;2023-07-02T08:00:19;18.65;;;7.07;;
29878;SDS011;16752;53.364;-1.488;2023-07-02T08:03:04;21.83;;;5.97;;
29878;SDS011;16752;53.364;-1.488;2023-07-02T08:05:48;19.98;;;7.63;;
29878;SDS011;16752;53.364;-1.488;2023-07-02T08:08:32;22.52;;;6.43;;
29878;SDS011;16752;53.364;-1.488;2023-07-02T08:11:16;19.65;;;7.15;;
29878;SDS011;16752;53.364;-1.488;2023-07-02T08:13:59;15.00;;;5.85;;
29878;SDS011;16752;53.364;-1.488;2023-07-02T08:16:43;18.75;;;6.18;;
29878;SDS011;16752;53.364;-1.488;2023-07-02T08:19:32;14.70;;;6.43;;
29878;SDS011;16752;53.364;-1.488;2023-07-02T08:22:16;30.52;;;7.05;;
29878;SDS011;16752;53.364;-1.488;2023-07-02T08:25:01;19.50;;;6.53;;
29878;SDS011;16752;53.364;-1.488;2023-07-02T08:27:45;20.13;;;6.18;;
29878;SDS011;16752;53.364;-1.488;2023-07-02T08:30:29;14.07;;;5.28;;
29878;SDS011;16752;53.364;-1.488;2023-07-02T08:33:13;18.98;;;5.88;;
29878;SDS011;16752;53.364;-1.488;2023-07-02T08:35:56;15.45;;;5.25;;
29878;SDS011;16752;53.364;-1.488;2023-07-02T08:38:44;15.65;;;5.50;;
29878;SDS011;16752;53.364;-1.488;2023-07-02T08:41:30;18.52;;;5.28;;
29878;SDS011;16752;53.364;-1.488;2023-07-02T08:44:26;14.48;;;4.50;;
29878;SDS011;16752;53.364;-1.488;2023-07-02T08:47:11;11.98;;;3.97;;
29878;SDS011;16752;53.364;-1.488;2023-07-02T08:49:55;11.57;;;4.35;;
29878;SDS011;16752;53.364;-1.488;2023-07-02T08:52:39;18.45;;;4.38;;
29878;SDS011;16752;53.364;-1.488;2023-07-02T08:55:23;16.98;;;5.25;;
29878;SDS011;16752;53.364;-1.488;2023-07-02T08:58:07;11.73;;;3.80;;
29878;SDS011;16752;53.364;-1.488;2023-07-02T11:31:51;10.00;;;5.82;;
29878;SDS011;16752;53.364;-1.488;2023-07-02T11:34:35;7.15;;;2.63;;
29878;SDS011;16752;53.364;-1.488;2023-07-02T11:37:20;7.75;;;2.72;;
29878;SDS011;16752;53.364;-1.488;2023-07-02T11:40:07;10.40;;;4.25;;
29878;SDS011;16752;53.364;-1.488;2023-07-02T11:42:52;12.45;;;6.03;;
29878;SDS011;16752;53.364;-1.488;2023-07-02T11:45:44;8.27;;;3.10;;
29878;SDS011;16752;53.364;-1.488;2023-07-02T11:48:31;8.55;;;2.47;;
29878;SDS011;16752;53.364;-1.488;2023-07-02T11:51:15;11.38;;;4.00;;
29878;SDS011;16752;53.364;-1.488;2023-07-02T11:53:59;8.15;;;2.20;;
29878;SDS011;16752;53.364;-1.488;2023-07-02T11:56:47;7.60;;;2.45;;
29878;SDS011;16752;53.364;-1.488;2023-07-02T11:59:35;7.57;;;2.37;;
29878;SDS011;16752;53.364;-1.488;2023-07-02T12:02:22;5.88;;;3.03;;
29878;SDS011;16752;53.364;-1.488;2023-07-02T12:05:06;7.22;;;3.15;;
29878;SDS011;16752;53.364;-1.488;2023-07-02T12:07:51;11.02;;;2.60;;
29878;SDS011;16752;53.364;-1.488;2023-07-02T12:10:44;5.20;;;2.13;;
29878;SDS011;16752;53.364;-1.488;2023-07-02T12:24:24;15.05;;;3.70;;
29878;SDS011;16752;53.364;-1.488;2023-07-02T12:27:08;9.80;;;3.25;;
29878;SDS011;16752;53.364;-1.488;2023-07-02T12:29:55;13.05;;;4.05;;
29878;SDS011;16752;53.364;-1.488;2023-07-02T12:32:40;11.70;;;3.05;;
29878;SDS011;16752;53.364;-1.488;2023-07-02T12:35:27;15.60;;;3.80;;
29878;SDS011;16752;53.364;-1.488;2023-07-02T12:38:11;12.55;;;3.15;;
29878;SDS011;16752;53.364;-1.488;2023-07-02T12:40:56;13.75;;;3.28;;
29878;SDS011;16752;53.364;-1.488;2023-07-02T12:43:40;10.02;;;2.70;;
29878;SDS011;16752;53.364;-1.488;2023-07-02T12:46:24;15.18;;;4.13;;
29878;SDS011;16752;53.364;-1.488;2023-07-02T12:49:08;10.10;;;3.30;;
29878;SDS011;16752;53.364;-1.488;2023-07-02T12:51:52;13.02;;;3.28;;
29878;SDS011;16752;53.364;-1.488;2023-07-02T12:54:36;6.32;;;2.17;;
29878;SDS011;16752;53.364;-1.488;2023-07-02T12:57:20;10.02;;;3.45;;
29878;SDS011;16752;53.364;-1.488;2023-07-02T13:00:04;8.77;;;3.17;;
29878;SDS011;16752;53.364;-1.488;2023-07-02T13:02:52;10.53;;;3.23;;
29878;SDS011;16752;53.364;-1.488;2023-07-02T13:05:36;7.75;;;2.47;;
29878;SDS011;16752;53.364;-1.488;2023-07-02T13:08:20;8.43;;;3.00;;
29878;SDS011;16752;53.364;-1.488;2023-07-02T13:11:04;8.48;;;4.32;;
29878;SDS011;16752;53.364;-1.488;2023-07-02T13:13:51;12.73;;;3.72;;
29878;SDS011;16752;53.364;-1.488;2023-07-02T13:16:36;15.48;;;4.97;;
29878;SDS011;16752;53.364;-1.488;2023-07-02T13:19:20;8.45;;;3.05;;
29878;SDS011;16752;53.364;-1.488;2023-07-02T13:22:07;9.07;;;3.03;;
29878;SDS011;16752;53.364;-1.488;2023-07-02T13:24:51;6.63;;;2.60;;
29878;SDS011;16752;53.364;-1.488;2023-07-02T13:27:35;13.15;;;3.50;;
29878;SDS011;16752;53.364;-1.488;2023-07-02T13:30:22;8.88;;;2.42;;
29878;SDS011;16752;53.364;-1.488;2023-07-02T13:33:06;6.63;;;2.28;;
29878;SDS011;16752;53.364;-1.488;2023-07-02T13:35:50;6.63;;;2.80;;
29878;SDS011;16752;53.364;-1.488;2023-07-02T13:38:34;10.85;;;3.20;;
29878;SDS011;16752;53.364;-1.488;2023-07-02T13:41:21;7.40;;;2.80;;
29878;SDS011;16752;53.364;-1.488;2023-07-02T13:44:15;7.15;;;3.00;;
29878;SDS011;16752;53.364;-1.488;2023-07-02T13:46:59;4.88;;;2.33;;
29878;SDS011;16752;53.364;-1.488;2023-07-02T13:49:45;7.50;;;2.50;;
29878;SDS011;16752;53.364;-1.488;2023-07-02T13:52:32;6.20;;;2.63;;
29878;SDS011;16752;53.364;-1.488;2023-07-02T13:55:16;13.10;;;3.28;;
29878;SDS011;16752;53.364;-1.488;2023-07-02T13:58:00;6.53;;;3.17;;
29878;SDS011;16752;53.364;-1.488;2023-07-02T14:00:44;13.07;;;3.42;;
29878;SDS011;16752;53.364;-1.488;2023-07-02T14:03:31;11.90;;;2.85;;
29878;SDS011;16752;53.364;-1.488;2023-07-02T14:06:15;7.88;;;3.70;;
29878;SDS011;16752;53.364;-1.488;2023-07-02T14:08:59;9.60;;;4.28;;
29878;SDS011;16752;53.364;-1.488;2023-07-02T14:11:43;6.82;;;2.67;;
29878;SDS011;16752;53.364;-1.488;2023-07-02T14:14:27;8.27;;;3.17;;
29878;SDS011;16752;53.364;-1.488;2023-07-02T14:17:13;9.82;;;3.00;;
29878;SDS011;16752;53.364;-1.488;2023-07-02T14:19:57;7.90;;;2.65;;
29878;SDS011;16752;53.364;-1.488;2023-07-02T14:22:41;9.77;;;2.38;;
29878;SDS011;16752;53.364;-1.488;2023-07-02T14:25:25;8.35;;;2.22;;
29878;SDS011;16752;53.364;-1.488;2023-07-02T14:28:10;9.23;;;2.92;;
29878;SDS011;16752;53.364;-1.488;2023-07-02T14:31:00;6.28;;;2.15;;
29878;SDS011;16752;53.364;-1.488;2023-07-02T14:33:50;7.88;;;2.67;;
29878;SDS011;16752;53.364;-1.488;2023-07-02T14:36:37;8.82;;;2.25;;
29878;SDS011;16752;53.364;-1.488;2023-07-02T14:39:22;13.50;;;2.58;;
29878;SDS011;16752;53.364;-1.488;2023-07-02T14:42:06;9.10;;;2.45;;
29878;SDS011;16752;53.364;-1.488;2023-07-02T14:44:51;6.70;;;2.30;;
29878;SDS011;16752;53.364;-1.488;2023-07-02T14:47:37;7.63;;;2.60;;
29878;SDS011;16752;53.364;-1.488;2023-07-02T14:50:21;5.68;;;2.28;;
29878;SDS011;16752;53.364;-1.488;2023-07-02T14:53:09;8.65;;;2.70;;
29878;SDS011;16752;53.364;-1.488;2023-07-02T14:56:03;5.77;;;2.77;;
29878;SDS011;16752;53.364;-1.488;2023-07-02T14:58:50;10.60;;;2.10;;
29878;SDS011;16752;53.364;-1.488;2023-07-02T15:01:38;7.40;;;2.88;;
29878;SDS011;16752;53.364;-1.488;2023-07-02T15:04:26;5.93;;;2.83;;
29878;SDS011;16752;53.364;-1.488;2023-07-02T15:07:11;12.37;;;3.27;;
29878;SDS011;16752;53.364;-1.488;2023-07-02T15:09:55;10.70;;;2.75;;
29878;SDS011;16752;53.364;-1.488;2023-07-02T15:12:45;8.10;;;2.58;;
29878;SDS011;16752;53.364;-1.488;2023-07-02T15:15:30;9.50;;;3.28;;
29878;SDS011;16752;53.364;-1.488;2023-07-02T15:18:19;11.45;;;2.17;;
29878;SDS011;16752;53.364;-1.488;2023-07-02T15:21:04;8.60;;;2.90;;
29878;SDS011;16752;53.364;-1.488;2023-07-02T15:23:51;7.57;;;2.30;;
29878;SDS011;16752;53.364;-1.488;2023-07-02T15:26:42;5.10;;;2.50;;
29878;SDS011;16752;53.364;-1.488;2023-07-02T15:29:37;6.15;;;2.22;;
29878;SDS011;16752;53.364;-1.488;2023-07-02T15:32:25;9.13;;;2.60;;
29878;SDS011;16752;53.364;-1.488;2023-07-02T15:35:12;4.70;;;1.90;;
29878;SDS011;16752;53.364;-1.488;2023-07-02T15:41:19;6.10;;;2.42;;
29878;SDS011;16752;53.364;-1.488;2023-07-02T15:44:04;4.18;;;1.92;;
29878;SDS011;16752;53.364;-1.488;2023-07-02T15:46:49;6.95;;;2.33;;
29878;SDS011;16752;53.364;-1.488;2023-07-02T15:49:37;10.88;;;2.63;;
29878;SDS011;16752;53.364;-1.488;2023-07-02T15:52:25;4.70;;;2.35;;
29878;SDS011;16752;53.364;-1.488;2023-07-02T15:55:09;4.88;;;1.60;;
29878;SDS011;16752;53.364;-1.488;2023-07-02T15:57:54;8.85;;;2.28;;
29878;SDS011;16752;53.364;-1.488;2023-07-02T16:00:41;8.27;;;2.03;;
29878;SDS011;16752;53.364;-1.488;2023-07-02T16:03:28;6.50;;;2.35;;
29878;SDS011;16752;53.364;-1.488;2023-07-02T16:09:27;4.63;;;1.67;;
29878;SDS011;16752;53.364;-1.488;2023-07-02T16:12:12;8.30;;;2.35;;
29878;SDS011;16752;53.364;-1.488;2023-07-02T16:15:07;5.47;;;2.08;;
29878;SDS011;16752;53.364;-1.488;2023-07-02T16:17:57;4.88;;;1.77;;
29878;SDS011;16752;53.364;-1.488;2023-07-02T16:20:43;8.25;;;2.03;;
29878;SDS011;16752;53.364;-1.488;2023-07-02T16:23:39;8.25;;;2.13;;
29878;SDS011;16752;53.364;-1.488;2023-07-02T16:26:26;7.47;;;2.70;;
29878;SDS011;16752;53.364;-1.488;2023-07-02T16:29:13;6.63;;;2.65;;
29878;SDS011;16752;53.364;-1.488;2023-07-02T16:32:10;11.40;;;2.83;;
29878;SDS011;16752;53.364;-1.488;2023-07-02T16:35:05;7.32;;;2.63;;
29878;SDS011;16752;53.364;-1.488;2023-07-02T16:37:49;9.75;;;2.65;;
29878;SDS011;16752;53.364;-1.488;2023-07-02T16:40:35;12.50;;;3.50;;
29878;SDS011;16752;53.364;-1.488;2023-07-02T16:43:23;7.68;;;3.50;;
29878;SDS011;16752;53.364;-1.488;2023-07-02T16:46:07;11.43;;;3.40;;
29878;SDS011;16752;53.364;-1.488;2023-07-02T16:48:53;8.85;;;2.95;;
29878;SDS011;16752;53.364;-1.488;2023-07-02T16:51:41;8.57;;;2.78;;
29878;SDS011;16752;53.364;-1.488;2023-07-02T16:54:28;7.30;;;3.00;;
29878;SDS011;16752;53.364;-1.488;2023-07-02T16:57:12;9.43;;;2.72;;
29878;SDS011;16752;53.364;-1.488;2023-07-02T16:59:56;10.82;;;3.25;;
29878;SDS011;16752;53.364;-1.488;2023-07-02T17:05:45;12.52;;;2.30;;
29878;SDS011;16752;53.364;-1.488;2023-07-02T17:08:39;7.85;;;2.08;;
29878;SDS011;16752;53.364;-1.488;2023-07-02T17:11:24;9.85;;;2.75;;
29878;SDS011;16752;53.364;-1.488;2023-07-02T17:14:21;11.63;;;3.67;;
29878;SDS011;16752;53.364;-1.488;2023-07-02T17:17:19;5.05;;;2.17;;
29878;SDS011;16752;53.364;-1.488;2023-07-02T17:20:14;4.95;;;2.25;;
29878;SDS011;16752;53.364;-1.488;2023-07-02T17:26:30;5.30;;;3.22;;
29878;SDS011;16752;53.364;-1.488;2023-07-02T17:29:14;11.15;;;6.45;;
29878;SDS011;16752;53.364;-1.488;2023-07-02T17:32:05;9.23;;;5.40;;
29878;SDS011;16752;53.364;-1.488;2023-07-02T17:34:50;11.07;;;7.60;;
29878;SDS011;16752;53.364;-1.488;2023-07-02T17:37:35;11.95;;;6.85;;
29878;SDS011;16752;53.364;-1.488;2023-07-02T17:40:20;39.63;;;28.45;;
29878;SDS011;16752;53.364;-1.488;2023-07-02T17:43:04;9.48;;;6.53;;
29878;SDS011;16752;53.364;-1.488;2023-07-02T17:45:52;8.07;;;7.28;;
29878;SDS011;16752;53.364;-1.488;2023-07-02T17:48:37;4.85;;;3.38;;
29878;SDS011;16752;53.364;-1.488;2023-07-02T17:51:22;8.30;;;4.70;;
29878;SDS011;16752;53.364;-1.488;2023-07-02T17:54:14;10.82;;;3.25;;
29878;SDS011;16752;53.364;-1.488;2023-07-02T17:57:11;6.55;;;2.33;;
29878;SDS011;16752;53.364;-1.488;2023-07-02T17:59:56;4.78;;;1.50;;
29878;SDS011;16752;53.364;-1.488;2023-07-02T18:02:42;6.20;;;2.17;;
29878;SDS011;16752;53.364;-1.488;2023-07-02T18:05:32;8.48;;;1.80;;
29878;SDS011;16752;53.364;-1.488;2023-07-02T18:08:20;6.63;;;2.00;;
29878;SDS011;16752;53.364;-1.488;2023-07-02T18:11:04;6.70;;;1.90;;
29878;SDS011;16752;53.364;-1.488;2023-07-02T18:13:48;4.38;;;1.75;;
29878;SDS011;16752;53.364;-1.488;2023-07-02T18:16:32;6.43;;;1.75;;
29878;SDS011;16752;53.364;-1.488;2023-07-02T18:19:17;5.72;;;2.15;;
29878;SDS011;16752;53.364;-1.488;2023-07-02T18:22:02;10.98;;;2.30;;
29878;SDS011;16752;53.364;-1.488;2023-07-02T18:24:50;6.47;;;2.20;;
29878;SDS011;16752;53.364;-1.488;2023-07-02T18:27:35;7.63;;;2.50;;
29878;SDS011;16752;53.364;-1.488;2023-07-02T18:30:22;9.32;;;2.53;;
29878;SDS011;16752;53.364;-1.488;2023-07-02T18:33:16;13.50;;;3.58;;
29878;SDS011;16752;53.364;-1.488;2023-07-02T18:36:03;11.88;;;3.15;;
29878;SDS011;16752;53.364;-1.488;2023-07-02T18:39:08;8.07;;;3.30;;
29878;SDS011;16752;53.364;-1.488;2023-07-02T18:41:55;18.98;;;4.25;;
29878;SDS011;16752;53.364;-1.488;2023-07-02T18:44:39;12.00;;;3.35;;
29878;SDS011;16752;53.364;-1.488;2023-07-02T18:47:26;11.52;;;3.38;;
29878;SDS011;16752;53.364;-1.488;2023-07-02T18:50:20;18.17;;;4.13;;
29878;SDS011;16752;53.364;-1.488;2023-07-02T18:53:42;10.23;;;3.00;;
29878;SDS011;16752;53.364;-1.488;2023-07-02T19:00:21;11.55;;;2.90;;
29878;SDS011;16752;53.364;-1.488;2023-07-02T19:03:25;8.23;;;2.92;;
29878;SDS011;16752;53.364;-1.488;2023-07-02T19:06:12;10.85;;;3.10;;
29878;SDS011;16752;53.364;-1.488;2023-07-02T19:08:56;8.85;;;3.30;;
29878;SDS011;16752;53.364;-1.488;2023-07-02T19:47:02;8.68;;;2.95;;